Time;durP1;ratioP1;P1;durP2;ratioP2;P2;SDS_P1;SDS_P2;PMS_P1;PMS_P2;Temp;Humidity;BMP_temperature;BMP_pressure;BME280_temperature;BME280_humidity;BME280_pressure;Samples;Min_cycle;Max_cycle;Signal;HPM_P1;HPM_P2
2022/11/30 00:01:45;;;;;;;;;;;7.60;99.90;;;;;;5047338;28;19975;-67
2022/11/30 00:04:17;;;;;;;;;;;7.60;99.90;;;;;;5046922;28;19964;-67
2022/11/30 00:06:44;;;;;;;;;;;7.60;99.90;;;;;;5049676;28;19974;-66
2022/11/30 00:09:13;;;;;;;;;;;7.60;99.90;;;;;;5051538;28;20376;-66
2022/11/30 00:11:41;;;;;;;;;;;7.60;99.90;;;;;;5047869;28;19964;-66
2022/11/30 00:14:09;;;;;;;;;;;7.70;99.90;;;;;;5048660;28;19968;-66
2022/11/30 00:16:36;;;;;;;;;;;7.70;99.90;;;;;;5050970;28;19968;-66
2022/11/30 00:19:04;;;;;;;;;;;7.70;99.90;;;;;;5051423;28;19968;-68
2022/11/30 00:21:32;;;;;;;;;;;7.80;99.90;;;;;;5050746;28;19968;-67
2022/11/30 00:24:19;;;;;;;;;;;7.80;99.90;;;;;;5051788;28;20062;-67
2022/11/30 00:26:47;;;;;;;;;;;7.80;99.90;;;;;;5051117;28;19991;-67
2022/11/30 00:29:15;;;;;;;;;;;7.80;99.90;;;;;;5049866;28;20050;-67
2022/11/30 00:31:43;;;;;;;;;;;7.80;99.90;;;;;;5048979;28;19964;-67
2022/11/30 00:34:11;;;;;;;;;;;7.80;99.90;;;;;;5046277;28;19964;-66
2022/11/30 00:36:38;;;;;;;;;;;7.90;99.90;;;;;;5046399;28;19971;-67
2022/11/30 00:39:06;;;;;;;;;;;7.90;99.90;;;;;;5045904;28;19965;-67
2022/11/30 00:41:35;;;;;;;;;;;7.90;99.90;;;;;;5050194;28;20062;-67
2022/11/30 00:44:03;;;;;;;;;;;7.90;99.90;;;;;;5050852;28;19964;-66
2022/11/30 00:46:31;;;;;;;;;;;7.90;99.90;;;;;;5051003;28;19968;-66
2022/11/30 00:48:59;;;;;;;;;;;7.90;99.90;;;;;;5051218;28;19969;-66
2022/11/30 00:51:26;;;;;;;;;;;7.90;99.90;;;;;;5047604;28;20314;-69
2022/11/30 00:53:54;;;;;;;;;;;7.90;99.90;;;;;;5049068;28;20002;-66
2022/11/30 00:56:22;;;;;;;;;;;7.90;99.90;;;;;;5047682;28;19968;-66
2022/11/30 00:58:53;;;;;;;;;;;8.00;99.90;;;;;;5048773;28;19995;-66
2022/11/30 01:01:20;;;;;;;;;;;7.90;99.90;;;;;;5048171;28;19964;-66
2022/11/30 01:03:48;;;;;;;;;;;7.90;99.90;;;;;;5049146;28;20526;-66
2022/11/30 01:06:16;;;;;;;;;;;7.80;99.90;;;;;;5045394;28;19978;-66
2022/11/30 01:08:43;;;;;;;;;;;7.80;99.90;;;;;;5048323;28;20096;-66
2022/11/30 01:11:12;;;;;;;;;;;7.80;99.90;;;;;;5047112;28;20475;-66
2022/11/30 01:13:40;;;;;;;;;;;7.70;99.90;;;;;;5049266;28;19986;-66
2022/11/30 01:16:10;;;;;;;;;;;7.70;99.90;;;;;;5052253;28;19975;-67
2022/11/30 01:18:38;;;;;;;;;;;7.70;99.90;;;;;;5050294;28;20058;-67
2022/11/30 01:21:07;;;;;;;;;;;7.70;99.90;;;;;;5052123;28;19968;-66
2022/11/30 01:23:34;;;;;;;;;;;7.70;99.90;;;;;;5052446;28;19968;-67
2022/11/30 01:26:02;;;;;;;;;;;7.70;99.90;;;;;;5051924;28;19978;-66
2022/11/30 01:28:30;;;;;;;;;;;7.70;99.90;;;;;;5053310;28;19970;-66
2022/11/30 01:30:58;;;;;;;;;;;7.70;99.90;;;;;;5050872;28;19971;-66
2022/11/30 01:33:27;;;;;;;;;;;7.70;99.90;;;;;;5050348;28;19973;-66
2022/11/30 01:35:58;;;;;;;;;;;7.60;99.90;;;;;;5052215;28;19965;-66
2022/11/30 01:38:26;;;;;;;;;;;7.60;99.90;;;;;;5050522;28;19975;-67
2022/11/30 01:40:54;;;;;;;;;;;7.60;99.90;;;;;;5051048;28;19979;-66
2022/11/30 01:43:21;;;;;;;;;;;7.60;99.90;;;;;;5051371;28;19964;-67
2022/11/30 01:45:49;;;;;;;;;;;7.50;99.90;;;;;;5052120;28;20343;-66
2022/11/30 01:48:17;;;;;;;;;;;7.60;99.90;;;;;;5052311;28;19964;-67
2022/11/30 01:50:46;;;;;;;;;;;7.60;99.90;;;;;;5050073;28;19967;-67
2022/11/30 01:53:14;;;;;;;;;;;7.60;99.90;;;;;;5051695;28;19972;-67
2022/11/30 01:55:44;;;;;;;;;;;7.60;99.90;;;;;;5044923;28;19970;-67
2022/11/30 01:58:14;;;;;;;;;;;7.70;99.90;;;;;;5052622;28;19969;-68
2022/11/30 02:00:44;;;;;;;;;;;7.70;99.90;;;;;;5051137;28;19971;-67
2022/11/30 02:03:14;;;;;;;;;;;7.70;99.90;;;;;;5052396;28;19964;-67
2022/11/30 02:05:42;;;;;;;;;;;7.80;99.90;;;;;;5046791;28;19971;-67
2022/11/30 02:08:11;;;;;;;;;;;7.80;99.90;;;;;;5050411;28;19971;-67
2022/11/30 02:10:40;;;;;;;;;;;7.70;99.90;;;;;;5043709;28;20472;-67
2022/11/30 02:13:15;;;;;;;;;;;7.70;99.90;;;;;;5050200;28;19975;-67
2022/11/30 02:15:48;;;;;;;;;;;7.70;99.90;;;;;;5048911;28;19978;-66
2022/11/30 02:18:19;;;;;;;;;;;7.70;99.90;;;;;;5052390;28;20063;-66
2022/11/30 02:20:53;;;;;;;;;;;7.70;99.90;;;;;;5052148;28;20066;-66
2022/11/30 02:23:44;;;;;;;;;;;7.70;99.90;;;;;;5050906;28;19971;-66
2022/11/30 02:26:18;;;;;;;;;;;7.70;99.90;;;;;;5049457;28;20348;-66
2022/11/30 02:28:57;;;;;;;;;;;7.70;99.90;;;;;;5053125;28;20038;-67
2022/11/30 02:31:27;;;;;;;;;;;7.70;99.90;;;;;;5050895;28;19964;-66
2022/11/30 02:33:57;;;;;;;;;;;7.70;99.90;;;;;;5051092;28;20062;-68
2022/11/30 02:36:26;;;;;;;;;;;7.70;99.90;;;;;;5050900;28;19968;-67
2022/11/30 02:38:54;;;;;;;;;;;7.70;99.90;;;;;;5051657;28;19975;-67
2022/11/30 02:41:22;;;;;;;;;;;7.70;99.90;;;;;;5052467;28;19964;-67
2022/11/30 02:43:50;;;;;;;;;;;7.70;99.90;;;;;;5052207;28;19972;-66
2022/11/30 02:46:22;;;;;;;;;;;7.80;99.90;;;;;;5049773;28;19971;-68
2022/11/30 02:48:53;;;;;;;;;;;7.80;99.90;;;;;;5045853;28;19971;-67
2022/11/30 02:51:22;;;;;;;;;;;7.80;99.90;;;;;;5050657;28;19964;-67
2022/11/30 02:53:50;;;;;;;;;;;7.80;99.90;;;;;;5051514;28;19964;-68
2022/11/30 02:56:18;;;;;;;;;;;7.90;99.90;;;;;;5051159;28;19972;-67
2022/11/30 02:58:46;;;;;;;;;;;8.00;99.90;;;;;;5050724;28;19968;-66
2022/11/30 03:01:14;;;;;;;;;;;8.00;99.90;;;;;;5048195;28;19968;-66
2022/11/30 03:03:43;;;;;;;;;;;8.00;99.90;;;;;;5049622;28;19964;-67
2022/11/30 03:06:11;;;;;;;;;;;8.00;99.90;;;;;;5047465;28;19968;-67
2022/11/30 03:08:39;;;;;;;;;;;7.90;99.90;;;;;;5046237;28;19971;-66
2022/11/30 03:11:06;;;;;;;;;;;7.80;99.90;;;;;;5047493;28;20006;-67
2022/11/30 03:13:34;;;;;;;;;;;7.80;99.90;;;;;;5050150;28;20552;-67
2022/11/30 03:16:05;;;;;;;;;;;7.80;99.90;;;;;;5047747;28;20437;-67
2022/11/30 03:18:33;;;;;;;;;;;7.80;99.90;;;;;;5049898;28;20408;-67
2022/11/30 03:21:04;;;;;;;;;;;7.80;99.90;;;;;;5050844;28;19970;-67
2022/11/30 03:23:32;;;;;;;;;;;7.70;99.90;;;;;;5049007;28;19968;-68
2022/11/30 03:25:59;;;;;;;;;;;7.70;99.90;;;;;;5048732;28;20594;-67
2022/11/30 03:28:27;;;;;;;;;;;7.70;99.90;;;;;;5050755;28;19978;-67
2022/11/30 03:30:56;;;;;;;;;;;7.80;99.90;;;;;;5048090;28;19964;-68
2022/11/30 03:33:24;;;;;;;;;;;7.80;99.90;;;;;;5050245;28;19964;-68
2022/11/30 03:35:58;;;;;;;;;;;7.80;99.90;;;;;;5046465;28;19964;-67
2022/11/30 03:38:27;;;;;;;;;;;7.80;99.90;;;;;;5050454;28;19964;-68
2022/11/30 03:41:01;;;;;;;;;;;7.90;99.90;;;;;;5050786;28;19970;-68
2022/11/30 03:43:29;;;;;;;;;;;7.90;99.90;;;;;;5070606;22;19969;-61
2022/11/30 03:45:57;;;;;;;;;;;7.90;99.90;;;;;;5010451;28;19965;-62
2022/11/30 03:48:24;;;;;;;;;;;7.90;99.90;;;;;;5010983;28;19965;-61
2022/11/30 03:50:52;;;;;;;;;;;7.80;99.90;;;;;;5009395;28;19965;-62
2022/11/30 03:53:21;;;;;;;;;;;7.80;99.90;;;;;;5003636;28;19965;-61
2022/11/30 03:55:53;;;;;;;;;;;7.80;99.90;;;;;;4999688;28;20357;-62
2022/11/30 03:58:21;;;;;;;;;;;7.80;99.90;;;;;;5000671;28;20460;-62
2022/11/30 04:00:50;;;;;;;;;;;7.80;99.90;;;;;;4996309;28;20457;-62
2022/11/30 04:03:17;;;;;;;;;;;7.80;99.90;;;;;;5000467;28;19971;-62
2022/11/30 04:05:46;;;;;;;;;;;7.80;99.90;;;;;;4992874;28;20498;-62
2022/11/30 04:08:14;;;;;;;;;;;7.70;99.90;;;;;;4994840;28;19965;-62
2022/11/30 04:10:41;;;;;;;;;;;7.70;99.90;;;;;;4993211;28;20441;-62
2022/11/30 04:13:10;;;;;;;;;;;7.70;99.90;;;;;;4999481;28;19964;-62
2022/11/30 04:15:38;;;;;;;;;;;7.80;99.90;;;;;;4980034;28;19965;-62
2022/11/30 04:18:06;;;;;;;;;;;7.70;99.90;;;;;;4998830;28;20067;-62
2022/11/30 04:20:34;;;;;;;;;;;7.60;99.90;;;;;;4998109;28;20597;-62
2022/11/30 04:23:07;;;;;;;;;;;7.60;99.90;;;;;;5003938;28;19973;-63
2022/11/30 04:25:37;;;;;;;;;;;7.60;99.90;;;;;;4992027;28;19981;-62
2022/11/30 04:28:04;;;;;;;;;;;7.60;99.90;;;;;;4992229;28;20464;-62
2022/11/30 04:30:34;;;;;;;;;;;7.60;99.90;;;;;;4983691;28;19972;-62
2022/11/30 04:33:02;;;;;;;;;;;7.70;99.90;;;;;;5000673;28;19976;-62
2022/11/30 04:35:29;;;;;;;;;;;7.70;99.90;;;;;;4991366;28;19965;-62
2022/11/30 04:37:57;;;;;;;;;;;7.70;99.90;;;;;;4992186;28;20335;-62
2022/11/30 04:40:25;;;;;;;;;;;7.70;99.90;;;;;;4991233;28;20465;-62
2022/11/30 04:42:53;;;;;;;;;;;7.80;99.90;;;;;;4985943;28;19974;-62
2022/11/30 04:45:20;;;;;;;;;;;7.80;99.90;;;;;;4993249;28;19965;-62
2022/11/30 04:47:49;;;;;;;;;;;7.90;99.90;;;;;;5000937;28;20426;-61
2022/11/30 04:50:17;;;;;;;;;;;7.90;99.90;;;;;;4989738;28;20342;-62
2022/11/30 04:52:46;;;;;;;;;;;7.80;99.90;;;;;;4999427;28;20051;-62
2022/11/30 04:55:16;;;;;;;;;;;7.90;99.90;;;;;;5002116;28;19969;-61
2022/11/30 04:57:43;;;;;;;;;;;7.90;99.90;;;;;;4999236;28;19980;-62
2022/11/30 05:00:12;;;;;;;;;;;8.00;99.90;;;;;;4997040;28;20434;-60
2022/11/30 05:02:39;;;;;;;;;;;7.90;99.90;;;;;;4994418;28;19964;-62
2022/11/30 05:05:09;;;;;;;;;;;7.90;99.90;;;;;;4992472;28;20531;-62
2022/11/30 05:07:37;;;;;;;;;;;7.90;99.90;;;;;;4994342;28;20489;-62
2022/11/30 05:10:06;;;;;;;;;;;7.90;99.90;;;;;;4995218;28;19972;-62
2022/11/30 05:12:34;;;;;;;;;;;8.00;99.90;;;;;;4999009;28;19965;-62
2022/11/30 05:15:02;;;;;;;;;;;8.00;99.90;;;;;;5001724;28;19969;-62
2022/11/30 05:17:30;;;;;;;;;;;7.90;99.90;;;;;;4996453;28;19969;-62
2022/11/30 05:19:57;;;;;;;;;;;8.00;99.90;;;;;;4988552;28;19976;-62
2022/11/30 05:22:26;;;;;;;;;;;8.00;99.90;;;;;;4991760;28;19975;-62
2022/11/30 05:24:54;;;;;;;;;;;8.00;99.90;;;;;;4991299;28;19976;-62
2022/11/30 05:27:22;;;;;;;;;;;8.10;99.90;;;;;;4991132;28;20064;-61
2022/11/30 05:29:49;;;;;;;;;;;8.10;99.90;;;;;;4990630;28;19969;-62
2022/11/30 05:32:17;;;;;;;;;;;8.10;99.90;;;;;;4991259;28;20460;-62
2022/11/30 05:34:45;;;;;;;;;;;8.10;99.90;;;;;;4990755;28;19971;-61
2022/11/30 05:37:18;;;;;;;;;;;8.10;99.90;;;;;;4989551;28;19969;-63
2022/11/30 05:39:47;;;;;;;;;;;8.10;99.90;;;;;;4979138;28;19973;-62
2022/11/30 05:42:14;;;;;;;;;;;8.20;99.90;;;;;;4981972;28;19973;-62
2022/11/30 05:44:42;;;;;;;;;;;8.20;99.90;;;;;;4980309;28;21173;-62
2022/11/30 05:47:10;;;;;;;;;;;8.20;99.90;;;;;;4981322;28;19980;-62
2022/11/30 05:49:38;;;;;;;;;;;8.20;99.90;;;;;;4980036;28;20092;-61
2022/11/30 05:52:05;;;;;;;;;;;8.20;99.90;;;;;;4982522;28;20123;-62
2022/11/30 05:54:33;;;;;;;;;;;8.10;99.90;;;;;;4980474;28;19980;-62
2022/11/30 05:57:04;;;;;;;;;;;8.20;99.90;;;;;;4980199;28;20065;-62
2022/11/30 05:59:31;;;;;;;;;;;8.20;99.90;;;;;;4983448;28;19972;-62
2022/11/30 06:01:59;;;;;;;;;;;8.20;99.90;;;;;;4982508;28;20008;-62
2022/11/30 06:04:27;;;;;;;;;;;8.20;99.90;;;;;;4981426;28;20032;-61
2022/11/30 06:06:55;;;;;;;;;;;8.20;99.90;;;;;;4983086;28;20048;-62
2022/11/30 06:09:23;;;;;;;;;;;8.20;99.90;;;;;;4983503;28;19969;-62
2022/11/30 06:11:50;;;;;;;;;;;8.20;99.90;;;;;;4981705;28;19973;-62
2022/11/30 06:14:20;;;;;;;;;;;8.20;99.90;;;;;;4982911;28;20354;-60
2022/11/30 06:16:47;;;;;;;;;;;8.30;99.90;;;;;;4982703;28;21511;-62
2022/11/30 06:19:15;;;;;;;;;;;8.30;99.90;;;;;;4984127;28;20051;-62
2022/11/30 06:21:43;;;;;;;;;;;8.30;99.90;;;;;;4983997;28;19973;-61
2022/11/30 06:24:10;;;;;;;;;;;8.20;99.90;;;;;;4984446;28;20737;-62
2022/11/30 06:26:38;;;;;;;;;;;8.20;99.90;;;;;;4981904;28;19973;-61
2022/11/30 06:29:06;;;;;;;;;;;8.20;99.90;;;;;;4983790;28;19973;-61
2022/11/30 06:31:35;;;;;;;;;;;8.20;99.90;;;;;;4983178;28;20324;-62
2022/11/30 06:34:03;;;;;;;;;;;8.20;99.90;;;;;;4984782;28;20328;-60
2022/11/30 06:36:31;;;;;;;;;;;8.20;99.90;;;;;;4980315;28;19973;-62
2022/11/30 06:39:03;;;;;;;;;;;8.10;99.90;;;;;;4983979;28;19969;-62
2022/11/30 06:41:31;;;;;;;;;;;8.10;99.90;;;;;;4983837;28;20032;-62
2022/11/30 06:43:59;;;;;;;;;;;8.10;99.90;;;;;;4985230;28;19995;-62
2022/11/30 06:46:26;;;;;;;;;;;8.10;99.90;;;;;;4980680;28;19969;-62
2022/11/30 06:48:55;;;;;;;;;;;8.10;99.90;;;;;;4980274;28;19992;-62
2022/11/30 06:51:23;;;;;;;;;;;8.20;99.90;;;;;;4980354;28;19965;-61
2022/11/30 06:53:51;;;;;;;;;;;8.20;99.90;;;;;;4982662;28;19966;-61
2022/11/30 06:56:18;;;;;;;;;;;8.10;99.90;;;;;;4979016;28;19976;-62
2022/11/30 06:58:46;;;;;;;;;;;8.10;99.90;;;;;;4983330;28;20091;-62
2022/11/30 07:01:14;;;;;;;;;;;8.10;99.90;;;;;;4982326;28;19973;-63
2022/11/30 07:03:43;;;;;;;;;;;8.10;99.90;;;;;;4979813;28;20104;-61
2022/11/30 07:06:13;;;;;;;;;;;8.10;99.90;;;;;;4976856;28;20079;-61
2022/11/30 07:08:41;;;;;;;;;;;8.10;99.90;;;;;;4982624;28;20387;-61
2022/11/30 07:11:10;;;;;;;;;;;8.10;99.90;;;;;;4980333;28;19988;-62
2022/11/30 07:13:38;;;;;;;;;;;8.10;99.90;;;;;;4983626;28;19979;-61
2022/11/30 07:16:06;;;;;;;;;;;8.10;99.90;;;;;;4986816;28;19965;-63
2022/11/30 07:18:34;;;;;;;;;;;8.10;99.90;;;;;;4989268;28;19973;-62
2022/11/30 07:21:03;;;;;;;;;;;8.10;99.90;;;;;;4992493;28;19992;-62
2022/11/30 07:26:24;;;;;;;;;;;8.10;99.90;;;;;;4994102;28;20020;-62
2022/11/30 07:28:53;;;;;;;;;;;8.10;99.90;;;;;;4994000;28;20316;-61
2022/11/30 07:31:23;;;;;;;;;;;8.10;99.90;;;;;;4993321;28;19973;-62
2022/11/30 07:33:51;;;;;;;;;;;8.10;99.90;;;;;;4993782;28;20020;-62
2022/11/30 07:36:20;;;;;;;;;;;8.10;99.90;;;;;;4993360;28;20398;-62
2022/11/30 07:38:49;;;;;;;;;;;8.20;99.90;;;;;;4993880;28;20064;-62
2022/11/30 07:41:17;;;;;;;;;;;8.10;99.90;;;;;;4993062;28;19979;-62
2022/11/30 07:43:44;;;;;;;;;;;8.10;99.90;;;;;;4993273;28;19999;-62
2022/11/30 07:46:13;;;;;;;;;;;8.10;99.90;;;;;;4993821;28;20405;-62
2022/11/30 07:48:41;;;;;;;;;;;8.10;99.90;;;;;;4993610;28;20008;-62
2022/11/30 07:51:11;;;;;;;;;;;8.10;99.90;;;;;;4992872;28;19995;-62
2022/11/30 07:53:39;;;;;;;;;;;8.10;99.90;;;;;;4993679;28;19973;-62
2022/11/30 07:56:10;;;;;;;;;;;8.10;99.90;;;;;;4993316;28;19969;-62
2022/11/30 07:58:37;;;;;;;;;;;8.10;99.90;;;;;;4993442;28;20246;-64
2022/11/30 08:01:06;;;;;;;;;;;8.10;99.90;;;;;;4992990;28;19973;-62
2022/11/30 08:03:34;;;;;;;;;;;8.10;99.90;;;;;;4993156;28;19980;-62
2022/11/30 08:06:05;;;;;;;;;;;8.20;99.90;;;;;;4988659;28;20019;-62
2022/11/30 08:08:34;;;;;;;;;;;8.20;99.90;;;;;;4993053;28;20088;-62
2022/11/30 08:11:02;;;;;;;;;;;8.30;99.90;;;;;;4992570;28;20517;-62
2022/11/30 08:13:32;;;;;;;;;;;8.30;99.90;;;;;;4993268;28;20068;-62
2022/11/30 08:16:01;;;;;;;;;;;8.40;99.90;;;;;;4992986;28;19969;-62
2022/11/30 08:18:29;;;;;;;;;;;8.40;99.90;;;;;;4993055;28;20446;-62
2022/11/30 08:20:57;;;;;;;;;;;8.40;99.90;;;;;;4992223;28;20454;-62
2022/11/30 08:23:25;;;;;;;;;;;8.40;99.90;;;;;;4992792;28;19984;-62
2022/11/30 08:25:53;;;;;;;;;;;8.50;99.90;;;;;;4992805;28;19976;-62
2022/11/30 08:28:20;;;;;;;;;;;8.50;99.90;;;;;;4993347;28;19969;-62
2022/11/30 08:30:49;;;;;;;;;;;8.60;99.90;;;;;;4992531;28;19975;-62
2022/11/30 08:33:17;;;;;;;;;;;8.60;99.90;;;;;;4992876;28;19973;-62
2022/11/30 08:35:45;;;;;;;;;;;8.60;99.90;;;;;;4992452;28;19980;-62
2022/11/30 08:38:12;;;;;;;;;;;8.60;99.90;;;;;;4992628;28;19973;-62
2022/11/30 08:40:40;;;;;;;;;;;8.70;99.90;;;;;;4992134;28;19973;-63
2022/11/30 08:43:08;;;;;;;;;;;8.60;99.90;;;;;;4992787;28;20518;-62
2022/11/30 08:45:36;;;;;;;;;;;8.60;99.90;;;;;;4992214;28;20327;-63
2022/11/30 08:48:05;;;;;;;;;;;8.50;99.90;;;;;;4992525;28;19970;-63
2022/11/30 08:50:33;;;;;;;;;;;8.50;99.90;;;;;;4991713;28;19969;-63
2022/11/30 08:53:00;;;;;;;;;;;8.60;99.90;;;;;;4992665;28;19969;-62
2022/11/30 08:55:54;;;;;;;;;;;8.50;99.90;;;;;;4992497;28;19980;-63
2022/11/30 08:58:22;;;;;;;;;;;8.50;99.90;;;;;;4992539;28;19980;-64
2022/11/30 09:00:50;;;;;;;;;;;8.60;99.90;;;;;;4991675;28;19975;-62
2022/11/30 09:03:20;;;;;;;;;;;8.50;99.90;;;;;;4992224;28;20505;-62
2022/11/30 09:05:47;;;;;;;;;;;8.60;99.90;;;;;;4991790;28;19969;-62
2022/11/30 09:08:15;;;;;;;;;;;8.60;99.90;;;;;;4992248;28;19973;-62
2022/11/30 09:10:43;;;;;;;;;;;8.60;99.90;;;;;;4991696;28;19969;-62
2022/11/30 09:13:10;;;;;;;;;;;8.60;99.90;;;;;;4992420;28;20443;-62
2022/11/30 09:15:38;;;;;;;;;;;8.80;99.90;;;;;;4992435;28;19977;-62
2022/11/30 09:18:06;;;;;;;;;;;9.00;99.90;;;;;;4992418;28;19973;-63
2022/11/30 09:20:36;;;;;;;;;;;9.10;99.90;;;;;;4991573;28;19969;-62
2022/11/30 09:23:03;;;;;;;;;;;9.30;99.90;;;;;;4992246;28;19977;-62
2022/11/30 09:25:31;;;;;;;;;;;9.30;99.90;;;;;;4992114;28;19969;-62
2022/11/30 09:27:59;;;;;;;;;;;9.40;99.90;;;;;;4991845;28;19969;-62
2022/11/30 09:30:27;;;;;;;;;;;9.40;99.90;;;;;;4991339;28;20502;-63
2022/11/30 09:32:54;;;;;;;;;;;9.40;99.90;;;;;;4992100;28;20027;-62
2022/11/30 09:35:22;;;;;;;;;;;9.50;99.90;;;;;;4995390;28;19971;-62
2022/11/30 09:37:52;;;;;;;;;;;9.50;99.90;;;;;;4996019;28;19976;-62
2022/11/30 09:40:21;;;;;;;;;;;9.50;99.90;;;;;;4994938;28;19973;-63
2022/11/30 09:42:54;;;;;;;;;;;9.50;99.90;;;;;;4995872;28;19970;-62
2022/11/30 09:45:24;;;;;;;;;;;9.50;99.90;;;;;;5057466;22;19964;-66
2022/11/30 09:48:07;;;;;;;;;;;9.50;99.90;;;;;;5055196;28;20071;-67
2022/11/30 09:50:37;;;;;;;;;;;9.50;99.90;;;;;;5054136;28;19971;-66
2022/11/30 09:53:14;;;;;;;;;;;9.50;99.90;;;;;;5055230;28;19968;-67
2022/11/30 09:55:43;;;;;;;;;;;9.40;99.90;;;;;;5054933;28;20357;-66
2022/11/30 09:58:15;;;;;;;;;;;9.40;99.90;;;;;;5054988;28;20453;-67
2022/11/30 10:00:43;;;;;;;;;;;9.40;99.90;;;;;;5054081;28;20452;-67
2022/11/30 10:03:12;;;;;;;;;;;9.40;99.90;;;;;;5054827;28;19979;-67
2022/11/30 10:05:45;;;;;;;;;;;9.30;99.90;;;;;;5062647;28;19967;-67
2022/11/30 10:08:22;;;;;;;;;;;9.40;99.90;;;;;;5071445;28;19967;-67
2022/11/30 10:10:55;;;;;;;;;;;9.40;99.90;;;;;;5073821;28;19972;-66
2022/11/30 10:13:30;;;;;;;;;;;9.40;99.90;;;;;;5074781;28;19968;-67
2022/11/30 10:16:03;;;;;;;;;;;9.40;99.90;;;;;;5074628;28;20066;-67
2022/11/30 10:18:36;;;;;;;;;;;9.40;99.90;;;;;;5074605;28;19967;-66
2022/11/30 10:21:13;;;;;;;;;;;9.40;99.90;;;;;;5073726;28;20462;-65
2022/11/30 10:23:52;;;;;;;;;;;9.40;99.90;;;;;;5074369;28;19974;-66
2022/11/30 10:26:23;;;;;;;;;;;9.50;99.90;;;;;;5074324;28;20345;-67
2022/11/30 10:28:52;;;;;;;;;;;9.50;99.90;;;;;;5074459;28;20048;-66
2022/11/30 10:31:25;;;;;;;;;;;9.50;99.90;;;;;;5073791;28;19994;-67
2022/11/30 10:33:54;;;;;;;;;;;9.50;99.90;;;;;;5071716;28;19974;-66
2022/11/30 10:36:26;;;;;;;;;;;9.40;99.90;;;;;;5063339;28;19972;-66
2022/11/30 10:38:57;;;;;;;;;;;9.30;99.90;;;;;;5074083;28;20020;-67
2022/11/30 10:41:28;;;;;;;;;;;9.40;99.90;;;;;;5073394;28;20058;-66
2022/11/30 10:43:59;;;;;;;;;;;9.40;99.90;;;;;;5073653;28;19978;-66
2022/11/30 10:46:28;;;;;;;;;;;9.40;99.90;;;;;;5072676;28;19974;-67
2022/11/30 10:48:58;;;;;;;;;;;9.40;99.90;;;;;;5074048;28;20023;-66
2022/11/30 10:51:26;;;;;;;;;;;9.30;99.90;;;;;;5073238;28;19972;-67
2022/11/30 10:53:57;;;;;;;;;;;9.40;99.90;;;;;;5073898;28;19968;-66
2022/11/30 10:56:25;;;;;;;;;;;9.40;99.90;;;;;;5073805;28;20021;-67
2022/11/30 10:58:54;;;;;;;;;;;9.40;99.90;;;;;;5073680;28;20326;-66
2022/11/30 11:01:29;;;;;;;;;;;9.40;99.90;;;;;;5073177;28;20449;-66
2022/11/30 11:04:07;;;;;;;;;;;9.40;99.90;;;;;;5070505;28;20330;-66
2022/11/30 11:06:35;;;;;;;;;;;9.30;99.90;;;;;;5064627;28;19964;-66
2022/11/30 11:09:18;;;;;;;;;;;9.30;99.90;;;;;;5073483;28;20432;-67
2022/11/30 11:11:52;;;;;;;;;;;9.30;99.90;;;;;;5072150;28;19971;-67
2022/11/30 11:14:21;;;;;;;;;;;9.30;99.90;;;;;;5073637;28;19971;-66
2022/11/30 11:16:50;;;;;;;;;;;9.30;99.90;;;;;;5073372;28;20379;-66
2022/11/30 11:19:23;;;;;;;;;;;9.30;99.90;;;;;;5073520;28;19974;-67
2022/11/30 11:21:51;;;;;;;;;;;9.40;99.90;;;;;;5072580;28;19982;-67
2022/11/30 11:24:19;;;;;;;;;;;9.40;99.90;;;;;;5073287;28;19968;-66
2022/11/30 11:26:52;;;;;;;;;;;9.40;99.90;;;;;;5073181;28;20071;-66
2022/11/30 11:29:30;;;;;;;;;;;9.40;99.90;;;;;;5073165;28;19968;-67
2022/11/30 11:32:15;;;;;;;;;;;9.40;99.90;;;;;;5072999;28;20070;-66
2022/11/30 11:34:43;;;;;;;;;;;9.40;99.90;;;;;;5054691;28;19964;-67
2022/11/30 11:37:19;;;;;;;;;;;9.50;99.90;;;;;;5064637;28;19971;-66
2022/11/30 11:39:58;;;;;;;;;;;9.50;99.90;;;;;;5072352;28;19968;-67
2022/11/30 11:42:28;;;;;;;;;;;9.40;99.90;;;;;;5073024;28;19972;-66
2022/11/30 11:44:58;;;;;;;;;;;9.40;99.90;;;;;;5072575;28;19978;-66
2022/11/30 11:47:27;;;;;;;;;;;9.30;99.90;;;;;;5072784;28;19978;-66
2022/11/30 11:50:05;;;;;;;;;;;9.20;99.90;;;;;;5072072;28;19968;-66
2022/11/30 11:52:33;;;;;;;;;;;9.00;99.90;;;;;;5072728;28;19971;-67
2022/11/30 11:55:03;;;;;;;;;;;8.90;99.90;;;;;;5072707;28;19968;-66
2022/11/30 11:57:37;;;;;;;;;;;8.80;99.90;;;;;;5072175;28;20712;-66
2022/11/30 12:00:06;;;;;;;;;;;8.60;99.90;;;;;;5072143;28;19976;-67
2022/11/30 12:02:47;;;;;;;;;;;8.50;99.90;;;;;;5072738;28;19971;-66
2022/11/30 12:05:17;;;;;;;;;;;8.50;99.90;;;;;;5066686;28;19964;-66
2022/11/30 12:07:46;;;;;;;;;;;8.60;99.90;;;;;;5064800;28;20417;-67
2022/11/30 12:10:22;;;;;;;;;;;8.60;99.90;;;;;;5071941;28;19972;-67
2022/11/30 12:13:15;;;;;;;;;;;8.70;99.90;;;;;;5072370;28;19972;-67
2022/11/30 12:15:52;;;;;;;;;;;8.80;99.90;;;;;;5072344;28;19975;-67
2022/11/30 12:18:22;;;;;;;;;;;8.90;99.90;;;;;;5072162;28;19994;-67
2022/11/30 12:20:55;;;;;;;;;;;9.00;99.90;;;;;;5071514;28;19968;-67
2022/11/30 12:23:47;;;;;;;;;;;9.00;99.90;;;;;;5072305;28;19999;-67
2022/11/30 12:26:20;;;;;;;;;;;9.10;99.90;;;;;;5072119;28;20456;-67
2022/11/30 12:28:56;;;;;;;;;;;9.10;99.90;;;;;;5072051;28;19968;-67
2022/11/30 12:31:31;;;;;;;;;;;9.10;99.90;;;;;;5071526;28;19972;-67
2022/11/30 12:34:05;;;;;;;;;;;9.10;99.90;;;;;;5068649;28;19968;-67
2022/11/30 12:36:42;;;;;;;;;;;9.10;99.90;;;;;;5063028;28;19970;-67
2022/11/30 12:39:16;;;;;;;;;;;9.10;99.90;;;;;;5072065;28;19976;-67
2022/11/30 12:41:49;;;;;;;;;;;9.00;99.90;;;;;;5071361;28;19968;-67
2022/11/30 12:44:27;;;;;;;;;;;9.00;99.90;;;;;;5071527;28;20470;-67
2022/11/30 12:46:57;;;;;;;;;;;9.00;99.90;;;;;;5071760;28;20066;-67
2022/11/30 12:49:33;;;;;;;;;;;9.00;99.90;;;;;;5071704;28;19968;-68
2022/11/30 12:52:04;;;;;;;;;;;9.10;99.90;;;;;;5071959;28;20050;-67
2022/11/30 12:54:36;;;;;;;;;;;9.10;99.90;;;;;;5071837;28;19974;-67
2022/11/30 12:57:10;;;;;;;;;;;9.10;99.90;;;;;;5072086;28;19999;-66
2022/11/30 12:59:43;;;;;;;;;;;9.10;99.90;;;;;;5071413;28;19968;-67
2022/11/30 13:02:23;;;;;;;;;;;9.10;99.90;;;;;;5071743;28;19968;-67
2022/11/30 13:04:53;;;;;;;;;;;9.20;99.90;;;;;;5066496;28;19967;-67
2022/11/30 13:07:27;;;;;;;;;;;9.20;99.90;;;;;;5063023;28;19964;-66
2022/11/30 13:09:58;;;;;;;;;;;9.10;99.90;;;;;;5070307;28;19971;-67
2022/11/30 13:12:34;;;;;;;;;;;9.10;99.90;;;;;;5071625;28;19975;-67
2022/11/30 13:15:06;;;;;;;;;;;9.10;99.90;;;;;;5071730;28;19972;-67
2022/11/30 13:17:40;;;;;;;;;;;9.00;99.90;;;;;;5063866;28;19994;-67
2022/11/30 13:20:16;;;;;;;;;;;9.00;99.90;;;;;;5051660;28;20448;-67
2022/11/30 13:22:48;;;;;;;;;;;9.00;99.90;;;;;;5044009;28;20433;-67
2022/11/30 13:25:20;;;;;;;;;;;9.00;99.90;;;;;;5051327;28;19968;-67
2022/11/30 13:28:12;;;;;;;;;;;8.80;99.90;;;;;;5051703;28;19972;-67
2022/11/30 13:30:44;;;;;;;;;;;8.90;99.90;;;;;;5050884;28;19975;-67
2022/11/30 13:33:30;;;;;;;;;;;8.90;99.90;;;;;;5051060;28;19972;-66
2022/11/30 13:35:58;;;;;;;;;;;8.90;99.90;;;;;;5051384;28;19972;-66
2022/11/30 13:38:26;;;;;;;;;;;8.90;99.90;;;;;;5051258;28;19974;-66
2022/11/30 13:41:09;;;;;;;;;;;8.90;99.90;;;;;;5050718;28;19972;-66
2022/11/30 13:43:40;;;;;;;;;;;8.90;99.90;;;;;;5051347;28;19968;-67
2022/11/30 13:46:15;;;;;;;;;;;8.90;99.90;;;;;;5050924;28;19974;-66
2022/11/30 13:48:43;;;;;;;;;;;8.90;99.90;;;;;;5059560;28;19964;-66
2022/11/30 13:51:11;;;;;;;;;;;8.90;99.90;;;;;;5067019;28;20459;-66
2022/11/30 13:53:40;;;;;;;;;;;8.90;99.90;;;;;;5071104;28;20390;-67
2022/11/30 13:56:26;;;;;;;;;;;8.90;99.90;;;;;;5071045;28;19975;-67
2022/11/30 13:59:12;;;;;;;;;;;8.80;99.90;;;;;;5071164;28;19968;-67
2022/11/30 14:01:42;;;;;;;;;;;8.80;99.90;;;;;;5070483;28;19974;-66
2022/11/30 14:04:38;;;;;;;;;;;8.80;99.90;;;;;;5070738;28;19972;-67
2022/11/30 14:07:33;;;;;;;;;;;8.60;99.90;;;;;;5070940;28;20493;-66
2022/11/30 14:10:01;;;;;;;;;;;8.70;99.90;;;;;;5070385;28;20391;-66
2022/11/30 14:12:45;;;;;;;;;;;8.60;99.90;;;;;;5071067;28;19972;-67
2022/11/30 14:15:33;;;;;;;;;;;8.60;99.90;;;;;;5070849;28;19967;-67
2022/11/30 14:18:04;;;;;;;;;;;8.60;99.90;;;;;;5069921;28;20425;-66
2022/11/30 14:20:34;;;;;;;;;;;8.60;99.90;;;;;;5064031;28;19978;-66
2022/11/30 14:23:06;;;;;;;;;;;8.60;99.90;;;;;;5074482;28;19975;-66
2022/11/30 14:25:34;;;;;;;;;;;8.60;99.90;;;;;;5074376;28;19968;-67
2022/11/30 14:28:03;;;;;;;;;;;8.60;99.90;;;;;;5074370;28;19986;-67
2022/11/30 14:30:32;;;;;;;;;;;8.60;99.90;;;;;;5073678;28;20351;-66
2022/11/30 14:33:02;;;;;;;;;;;8.60;99.90;;;;;;5074246;28;19978;-66
2022/11/30 14:35:31;;;;;;;;;;;8.50;99.90;;;;;;5074344;28;19967;-66
2022/11/30 14:38:02;;;;;;;;;;;8.50;99.90;;;;;;5074220;28;19978;-66
2022/11/30 14:40:30;;;;;;;;;;;8.50;99.90;;;;;;5073997;28;20059;-66
2022/11/30 14:43:00;;;;;;;;;;;8.50;99.90;;;;;;5074094;28;20332;-67
2022/11/30 14:45:28;;;;;;;;;;;8.50;99.90;;;;;;5073842;28;20074;-66
2022/11/30 14:48:04;;;;;;;;;;;8.40;99.90;;;;;;5073059;28;19963;-67
2022/11/30 14:50:34;;;;;;;;;;;8.50;99.90;;;;;;5065000;28;19979;-67
2022/11/30 14:53:14;;;;;;;;;;;8.50;99.90;;;;;;5073750;28;20479;-66